Time;durP1;ratioP1;P1;durP2;ratioP2;P2;SDS_P1;SDS_P2;PMS_P1;PMS_P2;Temp;Humidity;BMP_temperature;BMP_pressure;BME280_temperature;BME280_humidity;BME280_pressure;Samples;Min_cycle;Max_cycle;Signal;HPM_P1;HPM_P2
2024/03/09 00:01:05;;;;;;;53.73;22.60;;;;;;;0.15;63.99;100464.11;1780874;80;21103;-77
2024/03/09 00:03:33;;;;;;;55.98;22.17;;;;;;;0.15;64.10;100459.21;1781971;80;21119;-78
2024/03/09 00:06:03;;;;;;;55.73;22.20;;;;;;;0.14;64.12;100454.31;1780868;80;21119;-77
2024/03/09 00:08:31;;;;;;;53.63;21.93;;;;;;;0.09;64.20;100455.20;1780714;80;21170;-77
2024/03/09 00:11:00;;;;;;;57.30;22.27;;;;;;;0.09;64.37;100457.89;1780591;80;21554;-78
2024/03/09 00:13:29;;;;;;;55.55;23.95;;;;;;;0.13;64.49;100459.34;1780930;80;21106;-76
2024/03/09 00:15:59;;;;;;;52.43;21.73;;;;;;;0.13;64.57;100456.65;1780600;80;21146;-76
2024/03/09 00:18:28;;;;;;;54.40;21.90;;;;;;;0.14;64.59;100457.02;1780759;80;21150;-77
2024/03/09 00:20:58;;;;;;;54.88;22.07;;;;;;;0.16;64.62;100455.53;1778283;80;21087;-77
2024/03/09 00:23:27;;;;;;;56.18;22.17;;;;;;;0.14;64.66;100455.66;1780605;80;21538;-76
2024/03/09 00:25:56;;;;;;;56.23;23.25;;;;;;;0.12;64.70;100448.70;1755753;80;21570;-77
2024/03/09 00:28:25;;;;;;;62.10;23.22;;;;;;;0.13;64.84;100453.95;1780779;80;21115;-77
2024/03/09 00:30:54;;;;;;;56.73;22.17;;;;;;;0.15;64.84;100446.59;1780994;80;21553;-76
2024/03/09 00:33:23;;;;;;;52.48;22.40;;;;;;;0.16;64.85;100448.30;1780618;80;21167;-76
2024/03/09 00:35:54;;;;;;;50.75;21.42;;;;;;;0.15;64.83;100445.25;1780698;80;21119;-76
2024/03/09 00:38:24;;;;;;;54.77;21.73;;;;;;;0.12;64.89;100450.90;1780680;80;21119;-77
2024/03/09 00:40:53;;;;;;;52.67;22.42;;;;;;;0.13;65.06;100440.98;1780828;80;21126;-76
2024/03/09 00:43:22;;;;;;;51.48;21.25;;;;;;;0.10;65.22;100443.44;1780652;80;21174;-77
2024/03/09 00:45:50;;;;;;;49.20;20.50;;;;;;;0.09;65.34;100446.27;1780766;80;21162;-78
2024/03/09 00:48:19;;;;;;;51.18;20.65;;;;;;;0.11;65.35;100443.80;1780770;80;21114;-76
2024/03/09 00:50:48;;;;;;;49.58;20.37;;;;;;;0.09;65.31;100440.87;1780700;80;21162;-77
2024/03/09 00:53:17;;;;;;;58.65;20.95;;;;;;;0.10;65.37;100447.48;1780852;80;21107;-78
2024/03/09 00:55:46;;;;;;;45.35;18.77;;;;;;;0.10;65.31;100441.23;1780475;80;21671;-78
2024/03/09 00:58:16;;;;;;;46.80;18.57;;;;;;;0.09;65.24;100439.03;1780531;80;21625;-76
2024/03/09 01:00:47;;;;;;;44.75;18.85;;;;;;;0.06;65.13;100443.83;1780684;80;21102;-76
2024/03/09 01:03:15;;;;;;;47.53;19.37;;;;;;;0.05;65.11;100436.73;1780872;80;21134;-76
2024/03/09 01:05:44;;;;;;;42.80;17.57;;;;;;;0.03;65.06;100446.78;1780789;80;21130;-76
2024/03/09 01:08:13;;;;;;;46.73;18.62;;;;;;;0.03;65.03;100441.39;1780459;80;21119;-77
2024/03/09 01:10:44;;;;;;;51.30;20.00;;;;;;;0.03;65.03;100448.13;1780586;80;21150;-76
2024/03/09 01:13:13;;;;;;;50.40;20.40;;;;;;;0.02;65.07;100448.62;1780782;80;21095;-77
2024/03/09 01:15:42;;;;;;;49.40;19.73;;;;;;;0.02;65.16;100453.16;1780654;80;21092;-77
2024/03/09 01:18:10;;;;;;;44.55;19.23;;;;;;;-0.01;65.29;100447.50;1780692;80;21190;-76
2024/03/09 01:20:39;;;;;;;43.23;18.73;;;;;;;-0.01;65.36;100452.88;1780642;80;21107;-77
2024/03/09 01:23:10;;;;;;;46.28;19.98;;;;;;;-0.04;65.37;100446.41;1780780;80;21159;-77
2024/03/09 01:25:39;;;;;;;49.55;19.42;;;;;;;-0.09;65.53;100444.10;1780513;80;21562;-76
2024/03/09 01:28:07;;;;;;;43.00;18.42;;;;;;;-0.09;65.67;100448.63;1780450;80;21651;-78
2024/03/09 01:30:37;;;;;;;48.48;18.85;;;;;;;-0.11;65.74;100442.52;1780687;80;21631;-78
2024/03/09 01:33:06;;;;;;;50.58;20.25;;;;;;;-0.11;65.78;100443.38;1780668;80;21154;-77
2024/03/09 01:35:34;;;;;;;45.08;19.23;;;;;;;-0.12;65.79;100447.05;1780815;80;21138;-77
2024/03/09 01:38:04;;;;;;;49.33;20.00;;;;;;;-0.12;65.86;100450.23;1780869;80;21142;-76
2024/03/09 01:40:33;;;;;;;45.80;19.90;;;;;;;-0.15;65.87;100445.11;1781054;80;21546;-76
2024/03/09 01:43:02;;;;;;;54.53;20.55;;;;;;;-0.21;66.00;100446.47;1780823;80;21104;-78
2024/03/09 01:45:31;;;;;;;49.85;20.40;;;;;;;-0.20;66.13;100451.37;1780792;80;21134;-77
2024/03/09 01:48:00;;;;;;;50.73;20.52;;;;;;;-0.20;66.21;100450.87;1780794;80;21114;-76
2024/03/09 01:50:29;;;;;;;45.15;18.62;;;;;;;-0.19;66.25;100446.34;1781736;80;21094;-76
2024/03/09 01:52:58;;;;;;;49.48;18.57;;;;;;;-0.19;66.23;100446.34;1782129;80;21149;-77
2024/03/09 01:55:29;;;;;;;52.03;19.02;;;;;;;-0.21;66.18;100441.58;1780899;80;21357;-77
2024/03/09 01:57:57;;;;;;;51.35;19.20;;;;;;;-0.24;66.25;100448.08;1793420;80;21090;-77
2024/03/09 02:00:26;;;;;;;54.83;19.95;;;;;;;-0.24;66.26;100447.22;1793284;80;21130;-77
2024/03/09 02:02:55;;;;;;;55.55;22.73;;;;;;;-0.24;66.30;100455.30;1793505;80;21142;-77
2024/03/09 02:05:24;;;;;;;55.50;20.82;;;;;;;-0.25;66.40;100449.55;1793504;80;21617;-77
2024/03/09 02:07:53;;;;;;;54.95;22.37;;;;;;;-0.25;66.52;100447.71;1793430;80;21114;-77
2024/03/09 02:10:23;;;;;;;50.48;21.07;;;;;;;-0.24;66.57;100454.80;1793409;80;21166;-77
2024/03/09 02:12:52;;;;;;;55.30;20.88;;;;;;;-0.24;66.58;100451.26;1793373;80;21185;-76
2024/03/09 02:15:24;;;;;;;56.83;20.50;;;;;;;-0.29;66.59;100454.83;1793289;80;21181;-76
2024/03/09 02:17:52;;;;;;;56.02;20.35;;;;;;;-0.33;66.70;100455.08;1739784;80;21142;-76
2024/03/09 02:20:24;;;;;;;50.58;20.27;;;;;;;-0.33;66.73;100453.73;1793684;80;21149;-76
2024/03/09 02:22:53;;;;;;;50.80;20.00;;;;;;;-0.38;66.76;100447.88;1793646;80;21173;-75
2024/03/09 02:25:24;;;;;;;55.83;21.20;;;;;;;-0.40;66.89;100452.53;1793505;80;21153;-75
2024/03/09 02:27:53;;;;;;;56.08;22.52;;;;;;;-0.38;66.95;100447.02;1793359;80;21118;-75
2024/03/09 02:30:24;;;;;;;47.53;19.85;;;;;;;-0.39;66.97;100448.00;1793313;80;21154;-76
2024/03/09 02:32:53;;;;;;;54.08;20.55;;;;;;;-0.42;67.13;100449.60;1793393;80;21114;-76
2024/03/09 02:35:22;;;;;;;56.75;20.23;;;;;;;-0.44;67.16;100448.38;1793439;80;21104;-76
2024/03/09 02:37:51;;;;;;;53.83;18.82;;;;;;;-0.44;67.26;100450.22;1793325;80;21161;-76
2024/03/09 02:40:20;;;;;;;45.75;17.60;;;;;;;-0.45;67.27;100442.63;1793537;80;21110;-76
2024/03/09 02:43:07;;;;;;;47.03;18.65;;;;;;;-0.46;67.20;100444.11;1793364;80;21541;-76
2024/03/09 02:45:37;;;;;;;43.20;16.40;;;;;;;-0.47;67.20;100453.16;1793334;80;21569;-78
2024/03/09 02:48:07;;;;;;;44.20;18.77;;;;;;;-0.49;67.17;100444.36;1740843;80;21146;-77
2024/03/09 02:50:36;;;;;;;46.85;17.15;;;;;;;-0.51;67.19;100449.02;1793317;80;21549;-77
2024/03/09 02:53:05;;;;;;;40.67;15.15;;;;;;;-0.53;67.28;100450.48;1793548;80;21193;-76
2024/03/09 02:55:35;;;;;;;36.53;13.88;;;;;;;-0.53;67.41;100450.48;1793290;80;21154;-77
2024/03/09 02:58:04;;;;;;;29.80;12.95;;;;;;;-0.52;67.54;100449.50;1793398;80;21565;-76
2024/03/09 03:00:33;;;;;;;29.07;12.10;;;;;;;-0.51;67.54;100448.52;1793361;80;21133;-76
2024/03/09 03:05:52;;;;;;;30.27;12.88;;;;;;;-0.59;67.62;100445.60;1793450;80;21157;-77
2024/03/09 03:08:19;;;;;;;35.83;12.65;;;;;;;-0.60;67.72;100448.42;1793344;80;21157;-77
2024/03/09 03:10:48;;;;;;;28.83;12.80;;;;;;;-0.61;67.77;100448.91;1793435;80;21149;-77
2024/03/09 03:13:18;;;;;;;27.45;11.75;;;;;;;-0.61;67.78;100450.25;1793653;80;21172;-77
2024/03/09 03:15:47;;;;;;;27.07;10.20;;;;;;;-0.62;67.71;100451.73;1793338;80;21565;-78
2024/03/09 03:18:16;;;;;;;23.45;10.72;;;;;;;-0.63;67.68;100448.17;1793721;80;21110;-76
2024/03/09 03:20:45;;;;;;;26.85;11.75;;;;;;;-0.64;67.66;100443.78;1793259;80;21585;-77
2024/03/09 03:23:13;;;;;;;25.52;10.43;;;;;;;-0.67;67.72;100447.54;1793436;80;21628;-78
2024/03/09 03:25:44;;;;;;;28.62;10.58;;;;;;;-0.68;67.77;100446.32;1793381;80;21153;-77
2024/03/09 03:28:13;;;;;;;29.00;12.03;;;;;;;-0.69;67.77;100443.27;1793513;80;21255;-77
2024/03/09 03:30:41;;;;;;;30.97;12.60;;;;;;;-0.68;67.89;100443.63;1793460;80;21130;-77
2024/03/09 03:33:10;;;;;;;28.95;11.15;;;;;;;-0.63;67.96;100440.11;1793413;80;21207;-77
2024/03/09 03:35:39;;;;;;;26.27;11.30;;;;;;;-0.59;68.01;100438.88;1793581;80;21185;-76
2024/03/09 03:38:10;;;;;;;23.70;10.45;;;;;;;-0.56;67.98;100432.39;1793758;80;21146;-76
2024/03/09 03:40:40;;;;;;;25.00;10.85;;;;;;;-0.55;68.00;100446.20;1795012;80;21107;-77
2024/03/09 03:43:09;;;;;;;28.02;11.93;;;;;;;-0.55;68.05;100438.98;1794109;80;21119;-77
2024/03/09 03:45:37;;;;;;;23.83;11.60;;;;;;;-0.52;68.07;100439.23;1793708;80;21146;-77
2024/03/09 03:48:08;;;;;;;29.45;12.18;;;;;;;-0.53;68.11;100440.20;1793567;80;21153;-76
2024/03/09 03:50:38;;;;;;;36.98;14.28;;;;;;;-0.54;68.12;100430.42;1793620;80;21109;-77
2024/03/09 03:53:06;;;;;;;37.15;15.85;;;;;;;-0.56;68.17;100438.62;1793634;80;21396;-76
2024/03/09 03:55:37;;;;;;;33.70;14.30;;;;;;;-0.58;68.23;100439.23;1793863;80;21090;-78
2024/03/09 03:58:06;;;;;;;30.75;13.40;;;;;;;-0.59;68.29;100442.91;1793190;80;21122;-77
2024/03/09 04:00:36;;;;;;;29.18;11.70;;;;;;;-0.67;68.29;100444.85;1793357;80;21189;-78
2024/03/09 04:03:06;;;;;;;32.93;12.90;;;;;;;-0.72;68.42;100438.98;1793467;80;21125;-77
2024/03/09 04:05:35;;;;;;;26.07;11.00;;;;;;;-0.68;68.57;100440.94;1793583;80;21157;-76
2024/03/09 04:08:06;;;;;;;26.40;10.88;;;;;;;-0.62;68.58;100441.81;1793438;80;21146;-78
2024/03/09 04:10:36;;;;;;;25.68;10.53;;;;;;;-0.56;68.51;100444.00;1793403;80;21589;-77
2024/03/09 04:13:05;;;;;;;21.27;10.13;;;;;;;-0.47;68.39;100443.73;1793357;80;21162;-77
2024/03/09 04:15:34;;;;;;;31.97;10.90;;;;;;;-0.39;68.29;100444.82;1793542;80;21110;-78
2024/03/09 04:18:02;;;;;;;23.83;10.65;;;;;;;-0.31;68.15;100448.22;1793323;80;21545;-76
2024/03/09 04:20:37;;;;;;;22.40;9.88;;;;;;;-0.23;67.97;100444.89;1793339;80;21162;-78
2024/03/09 04:23:07;;;;;;;25.77;10.00;;;;;;;-0.16;67.75;100445.59;1792976;80;21130;-77
2024/03/09 04:25:38;;;;;;;22.70;9.80;;;;;;;-0.09;67.53;100445.94;1793451;80;21115;-78
2024/03/09 04:28:07;;;;;;;23.62;10.13;;;;;;;-0.02;67.38;100444.44;1793484;80;21114;-78
2024/03/09 04:30:37;;;;;;;25.40;10.93;;;;;;;0.05;67.21;100448.85;1793396;80;21141;-77
2024/03/09 04:33:08;;;;;;;25.10;10.78;;;;;;;0.09;67.02;100454.34;1793282;80;21142;-77
2024/03/09 04:35:37;;;;;;;30.60;12.15;;;;;;;0.14;66.84;100454.31;1793289;80;21153;-76
2024/03/09 04:38:06;;;;;;;29.63;12.07;;;;;;;0.19;66.62;100452.58;1793404;80;21126;-76
2024/03/09 04:40:36;;;;;;;30.72;13.00;;;;;;;0.22;66.40;100453.17;1793378;80;21090;-77
2024/03/09 04:43:05;;;;;;;28.38;12.95;;;;;;;0.25;66.18;100450.70;1793366;80;21133;-76
2024/03/09 04:45:34;;;;;;;29.52;12.75;;;;;;;0.26;66.03;100450.58;1793471;80;21121;-77
2024/03/09 04:48:04;;;;;;;30.82;12.82;;;;;;;0.27;65.86;100459.52;1793528;80;21142;-77
2024/03/09 04:50:33;;;;;;;31.97;12.50;;;;;;;0.29;65.73;100461.09;1793411;80;21118;-76
2024/03/09 04:53:08;;;;;;;40.00;14.60;;;;;;;0.30;65.48;100466.84;1793260;80;21142;-77
2024/03/09 04:55:38;;;;;;;38.20;16.27;;;;;;;0.26;65.43;100471.28;1793394;80;21142;-76
2024/03/09 04:58:17;;;;;;;40.90;16.35;;;;;;;0.26;65.48;100474.83;1794795;80;21117;-78
2024/03/09 05:00:38;;;;;;;52.00;20.55;;;;;;;0.30;65.48;100481.67;1792011;80;21134;-77
2024/03/09 05:03:07;;;;;;;55.23;20.05;;;;;;;0.34;65.40;100481.41;1796422;80;21114;-76
2024/03/09 05:05:36;;;;;;;56.05;20.48;;;;;;;0.37;65.33;100483.84;1796297;80;21161;-77
2024/03/09 05:08:05;;;;;;;50.88;19.35;;;;;;;0.37;65.14;100473.92;1796175;80;21173;-77
2024/03/09 05:10:34;;;;;;;46.63;18.60;;;;;;;0.36;65.07;100484.83;1796235;80;21102;-77
2024/03/09 05:13:02;;;;;;;45.75;17.87;;;;;;;0.35;65.02;100481.28;1796171;80;21102;-78
2024/03/09 05:15:31;;;;;;;44.70;16.65;;;;;;;0.36;65.01;100479.44;1796481;80;21137;-77
2024/03/09 05:18:02;;;;;;;37.88;16.10;;;;;;;0.36;64.97;100487.03;1796352;80;21133;-77
2024/03/09 05:20:32;;;;;;;42.20;14.78;;;;;;;0.36;64.91;100487.03;1796351;80;21090;-77
2024/03/09 05:23:07;;;;;;;38.17;13.70;;;;;;;0.36;64.92;100491.56;1796183;80;21604;-77
2024/03/09 05:25:37;;;;;;;25.25;11.48;;;;;;;0.37;64.93;100492.78;1796199;80;21126;-77
2024/03/09 05:28:06;;;;;;;28.20;11.53;;;;;;;0.43;64.98;100498.14;1799406;80;21118;-78
2024/03/09 05:30:35;;;;;;;26.97;10.63;;;;;;;0.46;64.91;100501.92;1796225;80;21130;-76
2024/03/09 05:33:09;;;;;;;31.77;12.05;;;;;;;0.48;64.91;100499.95;1796289;80;21145;-76
2024/03/09 05:35:35;;;;;;;27.65;11.35;;;;;;;0.53;64.82;100509.85;1796281;80;21514;-76
2024/03/09 05:38:04;;;;;;;26.23;11.03;;;;;;;0.54;64.68;100504.83;1796094;80;21118;-76
2024/03/09 05:40:34;;;;;;;27.55;10.90;;;;;;;0.55;64.62;100515.97;1796427;80;21110;-77
2024/03/09 05:43:07;;;;;;;25.85;10.98;;;;;;;0.57;64.59;100518.89;1796264;80;21137;-77
2024/03/09 05:45:36;;;;;;;26.45;11.22;;;;;;;0.61;64.54;100517.65;1796367;80;21133;-77
2024/03/09 05:48:08;;;;;;;27.82;10.75;;;;;;;0.64;64.56;100526.81;1796480;80;21133;-77
2024/03/09 05:50:37;;;;;;;26.55;9.98;;;;;;;0.68;64.51;100527.94;1796132;80;21094;-76
2024/03/09 05:53:08;;;;;;;31.30;11.45;;;;;;;0.70;64.42;100522.77;1796199;80;21149;-76
2024/03/09 05:55:39;;;;;;;25.88;9.60;;;;;;;0.71;64.44;100524.48;1796282;80;21581;-75
2024/03/09 05:58:08;;;;;;;21.30;8.63;;;;;;;0.74;64.59;100533.66;1796259;80;21172;-76
2024/03/09 06:00:37;;;;;;;18.12;7.10;;;;;;;0.81;64.83;100532.64;1796173;80;21161;-76
2024/03/09 06:03:06;;;;;;;13.72;6.28;;;;;;;0.88;65.06;100526.59;1796267;80;21125;-76
2024/03/09 06:05:37;;;;;;;14.70;5.67;;;;;;;0.96;65.30;100520.52;1796138;80;21835;-76
2024/03/09 06:08:06;;;;;;;13.85;5.72;;;;;;;1.03;65.54;100525.75;1796419;80;21102;-76
2024/03/09 06:10:35;;;;;;;13.03;6.00;;;;;;;1.11;65.62;100525.08;1796295;80;21537;-76
2024/03/09 06:13:06;;;;;;;12.93;5.50;;;;;;;1.16;65.75;100526.88;1795606;80;21193;-76
2024/03/09 06:15:34;;;;;;;14.25;5.35;;;;;;;1.19;65.79;100529.30;1796071;80;21564;-76
2024/03/09 06:18:05;;;;;;;16.23;6.28;;;;;;;1.23;65.94;100527.55;1796228;80;21106;-77
2024/03/09 06:20:34;;;;;;;11.43;5.00;;;;;;;1.28;65.97;100532.55;1796292;80;21577;-78
2024/03/09 06:23:04;;;;;;;22.93;6.80;;;;;;;1.32;66.13;100534.02;1796030;80;21146;-76
2024/03/09 06:25:34;;;;;;;11.73;5.15;;;;;;;1.37;66.20;100530.91;1796192;80;21572;-79
2024/03/09 06:28:16;;;;;;;10.85;5.55;;;;;;;1.43;66.17;100542.02;1796033;80;21113;-78
2024/03/09 06:30:45;;;;;;;12.88;5.87;;;;;;;1.46;66.09;100542.25;1796181;80;21098;-75
2024/03/09 06:33:15;;;;;;;16.40;6.25;;;;;;;1.49;66.08;100537.92;1796235;80;21541;-78
2024/03/09 06:35:44;;;;;;;15.23;6.40;;;;;;;1.54;65.96;100542.42;1796381;80;21126;-78
2024/03/09 06:38:14;;;;;;;13.58;5.95;;;;;;;1.58;65.88;100541.16;1796181;80;21131;-77
2024/03/09 06:40:45;;;;;;;11.97;6.03;;;;;;;1.61;65.77;100536.83;1796202;80;21110;-76
2024/03/09 06:43:17;;;;;;;16.02;6.50;;;;;;;1.65;65.69;100535.56;1796311;80;21126;-77
2024/03/09 06:45:47;;;;;;;12.82;6.42;;;;;;;1.72;65.56;100539.92;1796010;80;21253;-76
2024/03/09 06:48:17;;;;;;;12.80;6.05;;;;;;;1.76;65.43;100535.95;1796247;80;21176;-79
2024/03/09 06:50:46;;;;;;;14.05;5.97;;;;;;;1.82;65.33;100545.70;1796022;80;21839;-78
2024/03/09 06:53:15;;;;;;;14.78;6.35;;;;;;;1.85;65.25;100545.92;1796353;80;21114;-78
2024/03/09 06:55:44;;;;;;;17.10;6.15;;;;;;;1.90;65.05;100550.42;1796285;80;21176;-79
2024/03/09 06:58:13;;;;;;;13.43;6.20;;;;;;;1.95;65.03;100548.66;1795259;80;21145;-79
2024/03/09 07:00:42;;;;;;;13.88;5.55;;;;;;;2.01;64.90;100558.44;1793237;80;21122;-78
2024/03/09 07:03:10;;;;;;;13.72;6.35;;;;;;;2.04;64.74;100553.25;1793470;80;21083;-78
2024/03/09 07:05:39;;;;;;;12.43;5.53;;;;;;;2.07;64.57;100557.88;1793470;80;21225;-78
2024/03/09 07:08:10;;;;;;;10.98;5.55;;;;;;;2.08;64.42;100559.59;1793453;80;21162;-78
2024/03/09 07:10:40;;;;;;;13.83;6.10;;;;;;;2.14;64.33;100560.38;1793730;80;21118;-78
2024/03/09 07:13:09;;;;;;;12.53;5.92;;;;;;;2.22;64.25;100559.69;1793477;80;21118;-76
2024/03/09 07:15:38;;;;;;;13.00;5.97;;;;;;;2.32;64.20;100559.70;1796085;80;21160;-78
2024/03/09 07:18:07;;;;;;;12.13;5.92;;;;;;;2.41;64.14;100558.84;1793370;80;21142;-79
2024/03/09 07:20:37;;;;;;;11.83;6.00;;;;;;;2.51;63.95;100567.31;1793133;80;21099;-77
2024/03/09 07:23:06;;;;;;;12.07;5.22;;;;;;;2.63;63.76;100567.21;1793503;80;21118;-77
2024/03/09 07:25:36;;;;;;;11.93;5.75;;;;;;;2.75;63.59;100571.47;1793349;80;21149;-79
2024/03/09 07:28:05;;;;;;;12.53;6.15;;;;;;;2.87;63.21;100568.97;1793225;80;22110;-78
2024/03/09 07:30:36;;;;;;;13.65;5.83;;;;;;;2.94;62.96;100568.75;1793169;80;21565;-77
2024/03/09 07:33:06;;;;;;;13.43;6.28;;;;;;;3.04;62.87;100576.85;1793620;80;21122;-79
2024/03/09 07:35:36;;;;;;;12.07;6.00;;;;;;;3.15;62.65;100569.92;1793453;80;21118;-78
2024/03/09 07:38:05;;;;;;;10.35;5.62;;;;;;;3.24;62.35;100574.45;1793294;80;21122;-78
2024/03/09 07:40:36;;;;;;;12.82;6.05;;;;;;;3.31;62.14;100572.91;1793417;80;21157;-78
2024/03/09 07:43:07;;;;;;;11.45;5.60;;;;;;;3.37;62.02;100568.75;1793384;80;21541;-78
2024/03/09 07:45:36;;;;;;;13.48;5.92;;;;;;;3.45;61.96;100569.72;1793217;80;21099;-79
2024/03/09 07:48:05;;;;;;;10.13;6.05;;;;;;;3.54;61.77;100572.55;1793538;80;21594;-79
2024/03/09 07:50:35;;;;;;;12.82;6.12;;;;;;;3.61;61.49;100573.16;1793344;80;21119;-79
2024/03/09 07:53:06;;;;;;;12.63;6.03;;;;;;;3.68;61.33;100578.83;1793296;80;21142;-79
2024/03/09 07:55:35;;;;;;;17.25;6.75;;;;;;;3.72;61.28;100572.97;1793349;80;22056;-79
2024/03/09 07:58:04;;;;;;;12.33;6.28;;;;;;;3.79;61.22;100573.22;1793561;80;21142;-79
2024/03/09 08:00:35;;;;;;;13.40;6.08;;;;;;;3.87;61.13;100582.81;1791749;80;21161;-79
2024/03/09 08:03:05;;;;;;;14.70;6.12;;;;;;;3.96;61.12;100583.80;1793561;80;21573;-77
2024/03/09 08:05:34;;;;;;;16.73;5.78;;;;;;;3.95;61.00;100576.67;1793321;80;21130;-79
2024/03/09 08:08:08;;;;;;;11.45;5.37;;;;;;;3.97;60.99;100578.22;1793262;80;21145;-78
2024/03/09 08:10:38;;;;;;;14.00;6.12;;;;;;;4.02;60.94;100577.27;1793255;80;21169;-78
2024/03/09 08:13:05;;;;;;;11.40;6.00;;;;;;;4.07;60.91;100575.45;1793815;80;21174;-79
2024/03/09 08:15:34;;;;;;;15.30;6.10;;;;;;;4.09;60.78;100576.16;1793485;80;21122;-80
2024/03/09 08:18:07;;;;;;;21.00;7.08;;;;;;;4.12;60.73;100579.92;1793325;80;21561;-79
2024/03/09 08:20:35;;;;;;;17.10;5.87;;;;;;;4.14;60.56;100584.69;1793229;80;21541;-79
2024/03/09 08:23:04;;;;;;;11.63;5.40;;;;;;;4.14;60.47;100582.83;1793788;80;21122;-77
2024/03/09 08:25:33;;;;;;;14.95;5.22;;;;;;;4.15;60.35;100580.97;1793334;80;21153;-79
2024/03/09 08:28:02;;;;;;;12.58;5.87;;;;;;;4.16;60.16;100583.18;1793464;80;21126;-78
2024/03/09 08:30:31;;;;;;;11.85;6.15;;;;;;;4.17;60.07;100577.61;1793467;80;21083;-78
2024/03/09 08:33:01;;;;;;;13.98;5.65;;;;;;;4.18;60.19;100577.95;1793340;80;21110;-79
2024/03/09 08:35:31;;;;;;;10.88;5.28;;;;;;;4.23;60.19;100585.63;1793387;80;21125;-79
2024/03/09 08:38:01;;;;;;;11.95;5.60;;;;;;;4.26;60.10;100579.91;1793224;80;21530;-78
2024/03/09 08:40:30;;;;;;;13.58;6.05;;;;;;;4.30;59.96;100586.73;1793323;80;21122;-78
2024/03/09 08:42:59;;;;;;;10.28;5.30;;;;;;;4.34;59.92;100594.41;1793280;80;21094;-78
2024/03/09 08:45:28;;;;;;;12.82;5.92;;;;;;;4.40;59.88;100590.23;1793334;80;21094;-79
2024/03/09 08:47:58;;;;;;;13.88;5.97;;;;;;;4.45;59.72;100591.47;1793634;80;21118;-76
2024/03/09 08:50:27;;;;;;;13.03;5.90;;;;;;;4.51;59.36;100590.52;1793645;80;21546;-78
2024/03/09 08:52:56;;;;;;;14.98;6.10;;;;;;;4.52;59.41;100585.43;1793556;80;21113;-78
2024/03/09 08:55:26;;;;;;;11.73;5.95;;;;;;;4.54;59.30;100593.77;1773691;80;21155;-80
2024/03/09 08:57:54;;;;;;;12.85;6.00;;;;;;;4.56;59.08;100594.50;1764756;80;21149;-81
2024/03/09 09:00:28;;;;;;;13.22;5.97;;;;;;;4.59;59.12;100598.26;1735654;81;21140;-77
2024/03/09 09:02:59;;;;;;;10.32;5.45;;;;;;;4.63;59.38;100603.73;1761712;81;21140;-84
2024/03/09 09:05:28;;;;;;;15.48;5.92;;;;;;;4.75;60.21;100602.48;1763524;81;21106;-83
2024/03/09 09:07:59;;;;;;;13.35;5.92;;;;;;;4.83;59.45;100609.00;1765196;81;21569;-84
2024/03/09 09:10:29;;;;;;;15.53;7.08;;;;;;;4.90;59.16;100604.15;1765093;81;21131;-84
2024/03/09 09:12:59;;;;;;;15.35;6.58;;;;;;;4.98;58.60;100596.58;1769119;80;21106;-84
2024/03/09 09:15:27;;;;;;;14.07;6.37;;;;;;;4.98;58.18;100608.30;1791792;80;21154;-81
2024/03/09 09:17:58;;;;;;;15.13;7.05;;;;;;;4.98;57.94;100611.52;1791330;79;21547;-85
2024/03/09 09:20:27;;;;;;;15.93;7.20;;;;;;;4.99;57.96;100602.36;1790953;80;21554;-85
2024/03/09 09:22:56;;;;;;;17.37;7.30;;;;;;;5.01;57.94;100606.63;1791272;80;21570;-84
2024/03/09 09:25:26;;;;;;;14.58;7.45;;;;;;;5.08;58.09;100600.91;1791438;80;21122;-84
2024/03/09 09:27:57;;;;;;;14.18;7.05;;;;;;;5.12;57.77;100608.23;1791508;80;21138;-85
2024/03/09 09:30:26;;;;;;;14.83;6.33;;;;;;;5.16;57.46;100610.98;1782907;80;21104;-85
2024/03/09 09:32:56;;;;;;;12.98;6.55;;;;;;;5.19;57.30;100605.23;1760159;81;21131;-84
2024/03/09 09:35:26;;;;;;;13.38;6.55;;;;;;;5.23;57.36;100616.16;1760358;81;21171;-83
2024/03/09 09:37:57;;;;;;;13.70;6.55;;;;;;;5.26;57.16;100613.13;1761163;81;21151;-84
2024/03/09 09:40:26;;;;;;;11.90;6.72;;;;;;;5.32;57.07;100617.94;1760529;81;21135;-85
2024/03/09 09:42:55;;;;;;;15.35;6.72;;;;;;;5.35;57.02;100613.54;1760750;81;21122;-85
2024/03/09 09:45:23;;;;;;;12.45;6.78;;;;;;;5.38;57.05;100612.36;1760405;81;21137;-83
2024/03/09 09:47:54;;;;;;;15.90;7.08;;;;;;;5.45;57.70;100622.09;1759890;81;21559;-84
2024/03/09 09:50:23;;;;;;;16.05;7.15;;;;;;;5.52;56.74;100622.66;1760505;81;21213;-83
2024/03/09 09:52:52;;;;;;;14.98;7.25;;;;;;;5.54;56.86;100613.83;1760356;81;21581;-85
2024/03/09 09:55:21;;;;;;;14.05;7.22;;;;;;;5.60;56.86;100616.42;1755701;81;21885;-85
2024/03/09 09:57:51;;;;;;;17.37;7.90;;;;;;;5.65;56.68;100612.71;1760403;81;21151;-88
2024/03/09 10:00:23;;;;;;;14.85;7.05;;;;;;;5.71;56.56;100607.98;1762054;81;21120;-84
2024/03/09 10:03:00;;;;;;;19.65;8.43;;;;;;;5.76;56.64;100608.36;1765020;81;21147;-84
2024/03/09 10:05:31;;;;;;;15.40;7.47;;;;;;;5.85;56.29;100605.17;1765144;81;21095;-84
2024/03/09 10:08:09;;;;;;;14.80;7.75;;;;;;;5.92;55.97;100611.22;1764853;81;21110;-82
2024/03/09 10:10:42;;;;;;;14.85;6.92;;;;;;;5.95;55.71;100607.33;1764980;81;21589;-83
2024/03/09 10:13:15;;;;;;;16.20;7.10;;;;;;;5.97;55.19;100602.58;1771893;80;21134;-83
2024/03/09 10:15:49;;;;;;;15.03;7.58;;;;;;;5.99;55.07;100605.48;1796611;80;21098;-83
2024/03/09 10:18:19;;;;;;;13.93;6.90;;;;;;;6.04;55.11;100601.76;1796619;80;21142;-83
2024/03/09 10:20:49;;;;;;;11.43;6.10;;;;;;;6.08;54.98;100598.71;1796528;80;21102;-84
2024/03/09 10:23:18;;;;;;;10.68;5.87;;;;;;;6.10;54.80;100598.04;1797358;80;21106;-83
2024/03/09 10:25:48;;;;;;;12.10;5.78;;;;;;;6.16;54.48;100600.95;1796845;80;21126;-83
2024/03/09 10:28:18;;;;;;;10.72;5.65;;;;;;;6.21;54.10;100588.22;1796506;80;21142;-82
2024/03/09 10:30:47;;;;;;;10.30;5.03;;;;;;;6.22;53.66;100588.05;1796689;80;21106;-83
2024/03/09 10:33:16;;;;;;;9.75;4.78;;;;;;;6.20;53.36;100595.53;1800338;80;21177;-83
2024/03/09 10:35:53;;;;;;;8.00;4.85;;;;;;;6.19;53.34;100586.17;1797098;80;21106;-83
2024/03/09 10:38:19;;;;;;;9.15;4.65;;;;;;;6.20;53.10;100590.09;1795927;80;21149;-83
2024/03/09 10:40:48;;;;;;;9.73;4.70;;;;;;;6.19;52.94;100595.19;1799163;80;21086;-80
2024/03/09 10:43:17;;;;;;;8.85;5.00;;;;;;;6.18;52.98;100587.19;1797095;80;21141;-82
2024/03/09 10:45:51;;;;;;;7.97;5.35;;;;;;;6.19;52.74;100589.75;1772862;80;21153;-81
2024/03/09 10:48:21;;;;;;;10.88;5.08;;;;;;;6.16;52.67;100585.14;1796346;80;21177;-82
2024/03/09 10:51:04;;;;;;;9.38;4.33;;;;;;;6.11;52.36;100580.20;1796873;80;21177;-81
2024/03/09 10:53:41;;;;;;;12.07;4.37;;;;;;;6.09;52.37;100581.38;1797076;80;21591;-81
2024/03/09 10:56:18;;;;;;;9.28;4.58;;;;;;;6.09;52.17;100577.30;1796458;80;21169;-81
2024/03/09 10:58:47;;;;;;;10.15;4.80;;;;;;;6.09;52.21;100580.87;1796281;80;21141;-74
2024/03/09 11:01:17;;;;;;;11.22;5.20;;;;;;;6.07;52.36;100572.02;1773963;80;21141;-79
2024/03/09 11:03:50;;;;;;;10.25;5.10;;;;;;;6.05;53.48;100575.41;1762561;81;21585;-80
2024/03/09 11:06:21;;;;;;;8.80;4.22;;;;;;;6.06;53.26;100575.75;1711919;81;21577;-80
2024/03/09 11:08:56;;;;;;;8.25;4.40;;;;;;;6.11;52.42;100573.91;1711893;84;21124;-78
2024/03/09 11:11:28;;;;;;;6.47;2.50;;;;;;;6.14;52.18;100578.50;1711640;83;21158;-80
2024/03/09 11:14:03;;;;;;;3.25;2.02;;;;;;;6.21;50.65;100582.77;1711883;83;21157;-79
2024/03/09 11:16:32;;;;;;;6.90;3.08;;;;;;;6.26;49.31;100585.86;1672821;84;21149;-80
2024/03/09 11:19:01;;;;;;;8.25;3.33;;;;;;;6.30;48.88;100585.87;1711717;84;21635;-81
2024/03/09 11:21:34;;;;;;;6.20;2.98;;;;;;;6.32;48.25;100590.63;1641528;84;21196;-78
2024/03/09 11:24:07;;;;;;;7.47;2.12;;;;;;;6.33;48.20;100586.89;1711565;82;21766;-80
2024/03/09 11:26:52;;;;;;;6.85;2.00;;;;;;;6.36;47.68;100584.70;1711754;83;21125;-80
2024/03/09 11:29:17;;;;;;;4.87;2.17;;;;;;;6.40;47.49;100579.77;1710894;83;21169;-82
2024/03/09 11:31:49;;;;;;;6.20;2.83;;;;;;;6.47;47.97;100579.45;1711637;84;21117;-77
2024/03/09 11:34:23;;;;;;;7.00;2.80;;;;;;;6.57;47.81;100572.02;1711825;84;21629;-80